Kingshill, VI

1:44 AM AST on December 05, 2016 (GMT -0400)
Henry E Rohlsen | | Change Station

Elev 56 ft 17.70 °N, 64.81 °W | Updated 38 minutes ago

Mostly Cloudy
Mostly Cloudy
76 °F
Feels Like 76 °F
N
5
Wind Variable Wind from North

Today
High -- | Low -- °F
--% Chance of Precip.
Yesterday
High -- | Low -- °F
Precip. -- in
Pressure 29.98 in
Visibility 10.0 miles
Clouds Scattered Clouds 2500 ft
Mostly Cloudy 4300 ft
Mostly Cloudy 5500 ft
Dew Point 73 °F
Humidity 91%
Rainfall 0.00 in
Snow Depth Not available.
6:36 AM 5:43 PM
Waxing Crescent, 28% visible
SPECI TISX 050506Z AUTO 01004KT 10SM SCT025 BKN043 BKN055 24/23 A2998 RMK AO2 T02440228
Pressure 29.98 in
Visibility 10.0 miles
Clouds Scattered Clouds 2500 ft
Mostly Cloudy 4300 ft
Mostly Cloudy 5500 ft
Dew Point 73 °F
Humidity 91%
Rainfall 0.00 in
Snow Depth Not available.
6:36 AM 5:43 PM
Waxing Crescent, 28% visible
SPECI TISX 050506Z AUTO 01004KT 10SM SCT025 BKN043 BKN055 24/23 A2998 RMK AO2 T02440228

10-Day Weather Forecast

Almanac

Astronomy

Dec. 05, 2016 Rise Set
Actual Time
Civil Twilight
Nautical Twilight
Astronomical Twilight
Moon
Length of Visible Light
Length of Day
Tomorrow will be .
, % of the Moon is Illuminated

Today's Extremes

State Highs State Lows

Community

WunderPhotos

Upload Photos

1,955,770 photos uploaded!

WunderBlog® & News

Nearby

Air Quality

  Air Quality AQ Index Pollutant
Not available.

Snow Depth

Station Depth Elevation

Earthquake Activity

City Distance Mag. Time & Date
Minimum magnitude displayed is 2.5.

Coastal Water Temperatures

Place Temperature

Stations

Nearby Weather Stations

Station Location Temp. Windchill Dew Point Humidity Wind Precip. Elev Updated Type
                   

Watches & Warnings

There are currently no watches in effect.